^^
Station Historical Data
Daily Summary for January 27, 2017 Units:  Metric    English   Both
« Previous Day
Next Day »
Daily Weekly Monthly Yearly Custom
  High: Low: Average:
Temperature: 26.3 °C 12.2 °C 17.2 °C
Dew Point: 9.6 °C 2.5 °C 7.2 °C
Humidity: 76% 24% 57%
Wind Speed: 38.5km/h 13km/h 22.2km/h
Wind Gust: 40.2km/h - -
Wind- - South
Pressure: 1013.8 hPa 1010 hPa -
Precipitation: 0 mm    
Historical Graphs
 
 
Tabular Data for January 27, 2017
Time Temperature Dew Point Pressure Wind Wind Speed Wind Gust Humidity Rainfall Rate (Hourly) solar Conditions
01:40 14.4 °C 8.8 °C 1012.8 hPa SSW 30.6 km/h 30.6 km/h 69% 0 mm 0.0 W/m2
02:00 14.2 °C 9 °C 1012.4 hPa SSW 28.8 km/h 33.8 km/h 71% 0 mm 0.0 W/m2
02:10 14.1 °C 8.9 °C 1012.4 hPa South 27.4 km/h 30.6 km/h 71% 0 mm 0.0 W/m2
02:15 14.1 °C 8.9 °C 1012.4 hPa South 19.5 km/h 29 km/h 71% 0 mm 0.0 W/m2
02:20 13.9 °C 8.7 °C 1012.4 hPa SSW 16.3 km/h 32.2 km/h 71% 0 mm 0.0 W/m2
02:30 13.8 °C 8.8 °C 1012.4 hPa South 19.5 km/h 35.4 km/h 72% 0 mm 0.0 W/m2
02:35 13.7 °C 8.7 °C 1012.4 hPa South 30.6 km/h 35.4 km/h 72% 0 mm 0.0 W/m2
02:40 13.7 °C 8.9 °C 1012.4 hPa South 19.5 km/h 33.8 km/h 73% 0 mm 0.0 W/m2
02:50 13.6 °C 8.9 °C 1012.4 hPa South 22.7 km/h 30.6 km/h 73% 0 mm 0.0 W/m2
02:55 13.6 °C 9.1 °C 1012.4 hPa South 20.9 km/h 30.6 km/h 74% 0 mm 0.0 W/m2
03:00 13.6 °C 9.1 °C 1012.4 hPa South 25.9 km/h 30.6 km/h 74% 0 mm 0.0 W/m2
03:05 13.5 °C 9 °C 1012.4 hPa South 17.7 km/h 29 km/h 74% 0 mm 0.0 W/m2
03:10 13.5 °C 9 °C 1012.4 hPa South 25.9 km/h 29 km/h 74% 0 mm 0.0 W/m2
03:15 13.4 °C 8.9 °C 1012.4 hPa South 22.7 km/h 33.8 km/h 74% 0 mm 0.0 W/m2
03:20 13.4 °C 8.9 °C 1012.4 hPa South 20.9 km/h 30.6 km/h 74% 0 mm 0.0 W/m2
03:30 13.4 °C 9.1 °C 1012.8 hPa South 25.9 km/h 29 km/h 75% 0 mm 0.0 W/m2
03:35 13.3 °C 9 °C 1012.8 hPa South 30.6 km/h 32.2 km/h 75% 0 mm 0.0 W/m2
03:46 13.3 °C 9 °C 1012.8 hPa South 24.1 km/h 29 km/h 75% 0 mm 0.0 W/m2
03:51 13.3 °C 9 °C 1012.8 hPa South 24.1 km/h 29 km/h 75% 0 mm 0.0 W/m2
03:56 13.2 °C 8.9 °C 1012.8 hPa South 24.1 km/h 30.6 km/h 75% 0 mm 0.0 W/m2
04:01 13.2 °C 8.9 °C 1012.8 hPa South 17.7 km/h 22.5 km/h 75% 0 mm 0.0 W/m2
04:06 13.2 °C 8.9 °C 1012.8 hPa South 22.7 km/h 24.1 km/h 75% 0 mm 0.0 W/m2
04:16 13.1 °C 8.8 °C 1012.8 hPa South 16.3 km/h 32.2 km/h 75% 0 mm 0.0 W/m2
04:21 13.1 °C 8.8 °C 1012.8 hPa South 17.7 km/h 29 km/h 75% 0 mm 0.0 W/m2
04:26 13 °C 8.9 °C 1012.8 hPa South 20.9 km/h 32.2 km/h 76% 0 mm 0.0 W/m2
04:36 12.9 °C 8.8 °C 1012.8 hPa South 24.1 km/h 27.4 km/h 76% 0 mm 0.0 W/m2
04:41 12.9 °C 8.8 °C 1012.8 hPa South 24.1 km/h 29 km/h 76% 0 mm 0.0 W/m2
04:46 12.8 °C 8.7 °C 1012.8 hPa SSW 17.7 km/h 29 km/h 76% 0 mm 0.0 W/m2
05:01 12.7 °C 8.4 °C 1012.8 hPa South 25.9 km/h 30.6 km/h 75% 0 mm 0.0 W/m2
05:06 12.7 °C 8.6 °C 1012.8 hPa SSW 24.1 km/h 24.1 km/h 76% 0 mm 0.0 W/m2
05:16 12.6 °C 8.3 °C 1013.1 hPa South 25.9 km/h 29 km/h 75% 0 mm 0.0 W/m2
05:21 12.6 °C 8.3 °C 1013.1 hPa South 22.7 km/h 27.4 km/h 75% 0 mm 0.0 W/m2
05:26 12.6 °C 8.3 °C 1013.1 hPa South 19.5 km/h 20.9 km/h 75% 0 mm 0.0 W/m2
05:31 12.6 °C 8.3 °C 1013.1 hPa South 30.6 km/h 33.8 km/h 75% 0 mm 0.0 W/m2
05:36 12.5 °C 8.2 °C 1013.4 hPa South 25.9 km/h 29 km/h 75% 0 mm 0.0 W/m2
05:41 12.5 °C 8.2 °C 1013.4 hPa South 24.1 km/h 32.2 km/h 75% 0 mm 0.0 W/m2
05:52 12.4 °C 8.1 °C 1013.4 hPa South 22.7 km/h 29 km/h 75% 0 mm 0.0 W/m2
06:02 12.3 °C 8 °C 1013.4 hPa SSW 17.7 km/h 27.4 km/h 75% 0 mm 0.0 W/m2
06:07 12.2 °C 7.9 °C 1013.4 hPa South 20.9 km/h 25.7 km/h 75% 0 mm 0.0 W/m2
06:13 12.2 °C 7.9 °C 1013.4 hPa SSW 28.8 km/h 30.6 km/h 75% 0 mm 0.0 W/m2
06:19 12.2 °C 7.9 °C 1013.4 hPa SSW 19.5 km/h 27.4 km/h 75% 0 mm 0.0 W/m2
06:41 12.2 °C 7.7 °C 1013.8 hPa South 16.3 km/h 29 km/h 74% 0 mm 16.0 W/m2
06:45 12.3 °C 7.6 °C 1013.8 hPa SSW 19.5 km/h 25.7 km/h 73% 0 mm 33.0 W/m2
07:00 12.4 °C 7.7 °C 1013.8 hPa SSW 19.5 km/h 33.8 km/h 73% 0 mm 60.0 W/m2
07:08 12.5 °C 7.6 °C 1013.8 hPa South 19.5 km/h 32.2 km/h 72% 0 mm 91.0 W/m2
07:10 12.5 °C 7.6 °C 1013.8 hPa South 24.1 km/h 32.2 km/h 72% 0 mm 113.0 W/m2
07:22 12.7 °C 7.8 °C 1013.8 hPa South 20.9 km/h 25.7 km/h 72% 0 mm 134.0 W/m2
07:37 12.8 °C 7.7 °C 1013.8 hPa SSW 19.5 km/h 33.8 km/h 71% 0 mm 200.0 W/m2
07:49 13.1 °C 7.5 °C 1013.8 hPa SSW 22.7 km/h 29 km/h 69% 0 mm 265.0 W/m2
11:53 20.7 °C 5.5 °C 1013.4 hPa SSW 25.9 km/h 30.6 km/h 37% 0 mm 965.0 W/m2
12:03 21.1 °C 5 °C 1013.4 hPa South 32 km/h 37 km/h 35% 0 mm 976.0 W/m2
12:14 21.2 °C 4.7 °C 1013.4 hPa South 17.7 km/h 27.4 km/h 34% 0 mm 986.0 W/m2
12:25 21.6 °C 4.6 °C 1013.4 hPa South 17.7 km/h 29 km/h 33% 0 mm 991.0 W/m2
12:29 21.9 °C 4.5 °C 1013.4 hPa South 17.7 km/h 27.4 km/h 32% 0 mm 1002.0 W/m2
12:47 22.2 °C 3.3 °C 1013.1 hPa SSW 14.3 km/h 29 km/h 29% 0 mm 1009.0 W/m2
13:36 23.6 °C 3 °C 1012.8 hPa SSW 16.3 km/h 25.7 km/h 26% 0 mm 1004.0 W/m2
13:41 23.7 °C 2.5 °C 1012.8 hPa South 25.9 km/h 32.2 km/h 25% 0 mm 1005.0 W/m2
13:47 24.6 °C 2.7 °C 1012.4 hPa South 13 km/h 27.4 km/h 24% 0 mm 1002.0 W/m2
13:52 24.4 °C 2.5 °C 1012.4 hPa SSW 22.7 km/h 33.8 km/h 24% 0 mm 995.0 W/m2
13:57 24.2 °C 2.9 °C 1012.4 hPa SSW 16.3 km/h 30.6 km/h 25% 0 mm 990.0 W/m2
14:00 24.2 °C 3.5 °C 1012.4 hPa South 22.7 km/h 24.1 km/h 26% 0 mm 983.0 W/m2
14:05 24.4 °C 3.1 °C 1012.4 hPa SW 20.9 km/h 29 km/h 25% 0 mm 976.0 W/m2
14:30 24.8 °C 2.9 °C 1011.7 hPa South 22.7 km/h 24.1 km/h 24% 0 mm 942.0 W/m2
14:45 25.3 °C 3.3 °C 1011.7 hPa SSE 25.9 km/h 25.9 km/h 24% 0 mm 916.0 W/m2
15:00 25.6 °C 3.5 °C 1011.7 hPa South 20.9 km/h 27.4 km/h 24% 0 mm 896.0 W/m2
15:09 25.6 °C 4.1 °C 1011.4 hPa South 22.7 km/h 27.4 km/h 25% 0 mm 874.0 W/m2
15:17 25.9 °C 3.8 °C 1011.4 hPa South 19.5 km/h 30.6 km/h 24% 0 mm 851.0 W/m2
16:42 26.1 °C 4 °C 1010.4 hPa SSW 27.4 km/h 35.4 km/h 24% 0 mm 612.0 W/m2
17:07 26.3 °C 4.7 °C 1010 hPa South 25.9 km/h 35.4 km/h 25% 0 mm 526.0 W/m2
17:12 26.2 °C 4.6 °C 1010 hPa South 19.5 km/h 35.4 km/h 25% 0 mm 508.0 W/m2
17:17 26.1 °C 5.1 °C 1010 hPa SSW 24.1 km/h 35.4 km/h 26% 0 mm 490.0 W/m2
17:22 26 °C 5 °C 1010 hPa South 22.7 km/h 40.2 km/h 26% 0 mm 469.0 W/m2
17:27 25.9 °C 4.4 °C 1010 hPa South 35.2 km/h 37 km/h 25% 0 mm 452.0 W/m2
17:40 25.8 °C 4.3 °C 1010 hPa South 30.6 km/h 32.2 km/h 25% 0 mm 396.0 W/m2
17:45 25.9 °C 3.8 °C 1010 hPa SSW 20.9 km/h 30.6 km/h 24% 0 mm 380.0 W/m2
17:50 25.9 °C 3.8 °C 1010 hPa South 38.5 km/h 40.2 km/h 24% 0 mm 360.0 W/m2
22:23 18.7 °C 9.5 °C 1013.1 hPa South 22.7 km/h 29 km/h 55% 0 mm 0.0 W/m2
22:27 18.7 °C 9.5 °C 1013.1 hPa South 19.5 km/h 30.6 km/h 55% 0 mm 0.0 W/m2
22:32 18.6 °C 9.6 °C 1013.1 hPa South 14.3 km/h 25.7 km/h 56% 0 mm 0.0 W/m2
22:58 18.2 °C 9.5 °C 1013.4 hPa SSW 13 km/h 20.9 km/h 57% 0 mm 0.0 W/m2
23:03 18.1 °C 9.4 °C 1013.4 hPa SSW 22.7 km/h 22.7 km/h 57% 0 mm 0.0 W/m2
23:08 17.9 °C 9.5 °C 1013.4 hPa SSW 16.3 km/h 24.1 km/h 58% 0 mm 0.0 W/m2
23:12 17.9 °C 9.5 °C 1013.4 hPa SSW 17.7 km/h 20.9 km/h 58% 0 mm 0.0 W/m2
23:18 17.8 °C 9.4 °C 1013.4 hPa SSW 14.3 km/h 25.7 km/h 58% 0 mm 0.0 W/m2
23:22 17.8 °C 9.4 °C 1013.4 hPa SSW 19.5 km/h 24.1 km/h 58% 0 mm 0.0 W/m2
Canyon Roadhouse, Fishriver Canyon, Namibia
Compliments of Weather Underground - 2 mb